Time;durP1;ratioP1;P1;durP2;ratioP2;P2;SDS_P1;SDS_P2;PMS_P1;PMS_P2;Temp;Humidity;BMP_temperature;BMP_pressure;BME280_temperature;BME280_humidity;BME280_pressure;Samples;Min_cycle;Max_cycle;Signal;HPM_P1;HPM_P2
2021/07/28 00:02:03;;;;;;;12.73;10.63;;;22.10;83.50;;;;;;5114943;28;20084;-48
2021/07/28 00:04:32;;;;;;;15.80;10.90;;;22.10;83.50;;;;;;5112802;28;20028;-47
2021/07/28 00:06:57;;;;;;;12.13;10.40;;;22.10;83.60;;;;;;5094373;28;20634;-47
2021/07/28 00:09:23;;;;;;;14.63;12.18;;;22.20;83.30;;;;;;5096911;28;20066;-50
2021/07/28 00:11:49;;;;;;;20.73;15.55;;;22.20;83.40;;;;;;5115667;28;20107;-55
2021/07/28 00:14:14;;;;;;;25.70;18.00;;;22.20;83.40;;;;;;5113464;28;20055;-64
2021/07/28 00:16:40;;;;;;;26.73;18.52;;;22.20;83.50;;;;;;5097086;28;20039;-52
2021/07/28 00:19:27;;;;;;;25.20;16.75;;;22.30;83.50;;;;;;5112371;28;20028;-46
2021/07/28 00:24:37;;;;;;;16.60;13.27;;;22.30;83.80;;;;;;5113825;28;20032;-49
2021/07/28 00:27:04;;;;;;;20.52;13.60;;;22.40;83.60;;;;;;5089492;28;20058;-50
2021/07/28 00:29:30;;;;;;;19.27;13.13;;;22.40;83.50;;;;;;5114641;28;20059;-49
2021/07/28 00:31:57;;;;;;;15.27;12.57;;;22.50;83.00;;;;;;5111973;28;20016;-50
2021/07/28 00:34:23;;;;;;;16.65;12.75;;;22.60;83.20;;;;;;5113222;28;20059;-51
2021/07/28 00:36:48;;;;;;;13.95;12.52;;;22.60;83.40;;;;;;5111387;28;20062;-50
2021/07/28 00:39:14;;;;;;;13.98;11.80;;;22.50;83.00;;;;;;5089318;28;20073;-47
2021/07/28 00:41:44;;;;;;;18.42;13.70;;;22.50;83.40;;;;;;5114043;28;20658;-49
2021/07/28 00:44:11;;;;;;;17.33;11.43;;;22.40;83.30;;;;;;5111052;28;20418;-52
2021/07/28 00:46:37;;;;;;;11.50;9.40;;;21.80;85.90;;;;;;5110651;28;20108;-46
2021/07/28 00:49:03;;;;;;;11.45;8.70;;;21.00;88.00;;;;;;5109603;28;20540;-50
2021/07/28 00:51:30;;;;;;;12.80;8.35;;;20.60;88.30;;;;;;5112943;28;20035;-50
2021/07/28 00:53:57;;;;;;;10.82;7.40;;;20.30;88.40;;;;;;5113533;28;20118;-48
2021/07/28 00:56:22;;;;;;;10.77;6.93;;;20.30;88.60;;;;;;5114069;28;20024;-48
2021/07/28 00:58:48;;;;;;;10.68;7.13;;;20.20;87.80;;;;;;5079423;28;20032;-46
2021/07/28 01:01:17;;;;;;;7.93;6.20;;;20.30;87.90;;;;;;5093089;28;20042;-46
2021/07/28 01:03:43;;;;;;;9.20;6.43;;;20.20;88.80;;;;;;5095773;28;20055;-47
2021/07/28 01:06:10;;;;;;;7.88;6.45;;;20.30;88.30;;;;;;5112824;28;20063;-47
2021/07/28 01:08:36;;;;;;;8.10;6.22;;;20.30;89.40;;;;;;5102391;28;20375;-48
2021/07/28 01:11:03;;;;;;;8.48;6.22;;;20.30;89.80;;;;;;5093347;28;20111;-50
2021/07/28 01:13:31;;;;;;;8.10;7.15;;;20.30;90.20;;;;;;5066921;28;20038;-50
2021/07/28 01:16:09;;;;;;;7.45;6.35;;;20.30;90.70;;;;;;5098430;28;20028;-55
2021/07/28 01:18:35;;;;;;;10.27;6.43;;;20.00;91.50;;;;;;5091996;28;20491;-58
2021/07/28 01:21:02;;;;;;;7.28;6.57;;;20.00;91.50;;;;;;5086952;28;20040;-50
2021/07/28 01:23:29;;;;;;;7.50;6.75;;;19.90;91.70;;;;;;5093614;28;20395;-50
2021/07/28 01:25:57;;;;;;;9.45;6.78;;;20.00;91.60;;;;;;5093369;28;20491;-49
2021/07/28 01:28:25;;;;;;;8.23;6.53;;;20.10;91.70;;;;;;5093287;28;20040;-51
2021/07/28 01:31:05;;;;;;;8.60;6.40;;;20.10;91.50;;;;;;5093209;28;20035;-54
2021/07/28 01:33:35;;;;;;;7.57;6.78;;;20.20;91.40;;;;;;5078377;28;20055;-49
2021/07/28 01:36:03;;;;;;;6.45;5.85;;;20.30;91.90;;;;;;5092492;28;20028;-54
2021/07/28 01:38:30;;;;;;;10.45;6.82;;;20.40;92.40;;;;;;5092644;28;20083;-49
2021/07/28 01:41:01;;;;;;;7.82;6.65;;;20.60;92.40;;;;;;5088837;28;20036;-47
2021/07/28 01:43:28;;;;;;;7.72;6.38;;;20.60;91.80;;;;;;5081395;28;20121;-47
2021/07/28 01:45:55;;;;;;;8.32;6.38;;;20.60;91.80;;;;;;5083608;28;20610;-52
2021/07/28 01:48:21;;;;;;;7.13;6.43;;;20.70;91.70;;;;;;5087920;28;20032;-50
2021/07/28 01:50:47;;;;;;;7.20;6.50;;;20.80;91.80;;;;;;5091710;28;20028;-47
2021/07/28 01:53:14;;;;;;;8.68;6.88;;;20.80;91.90;;;;;;5092801;28;20044;-49
2021/07/28 01:55:41;;;;;;;9.75;6.60;;;20.60;92.30;;;;;;5092128;28;20108;-47
2021/07/28 01:58:06;;;;;;;7.97;6.45;;;20.60;91.80;;;;;;5092197;28;20036;-52
2021/07/28 02:00:32;;;;;;;7.20;5.82;;;20.50;91.60;;;;;;5092072;28;20035;-47
2021/07/28 02:03:04;;;;;;;6.88;6.18;;;20.50;91.90;;;;;;5074267;28;20118;-47
2021/07/28 02:05:37;;;;;;;8.65;6.88;;;20.40;92.10;;;;;;5092388;28;20059;-47
2021/07/28 02:08:05;;;;;;;8.32;6.90;;;20.40;92.40;;;;;;5092200;28;20036;-51
2021/07/28 02:10:36;;;;;;;8.30;6.90;;;20.30;92.70;;;;;;5091878;28;20024;-46
2021/07/28 02:13:02;;;;;;;15.05;9.75;;;20.30;92.60;;;;;;5091815;28;20028;-49
2021/07/28 02:15:29;;;;;;;9.00;7.07;;;20.30;92.40;;;;;;5091347;28;20369;-50
2021/07/28 02:17:55;;;;;;;10.48;6.70;;;20.40;92.70;;;;;;5092112;28;20031;-49
2021/07/28 02:20:21;;;;;;;9.60;6.90;;;20.00;93.10;;;;;;5084909;28;20024;-48
2021/07/28 02:22:47;;;;;;;9.15;7.13;;;19.90;93.30;;;;;;5092006;28;20028;-52
2021/07/28 02:25:14;;;;;;;9.05;7.35;;;19.70;93.90;;;;;;5091870;28;20380;-52
2021/07/28 02:27:40;;;;;;;9.02;7.50;;;19.70;94.00;;;;;;5092162;28;20059;-49
2021/07/28 02:30:07;;;;;;;11.35;7.70;;;19.50;94.80;;;;;;5077995;28;20077;-49
2021/07/28 02:32:33;;;;;;;13.52;8.43;;;19.60;94.50;;;;;;5092305;28;20080;-47
2021/07/28 02:34:59;;;;;;;9.30;7.47;;;19.50;95.00;;;;;;5092181;28;20079;-47
2021/07/28 02:37:25;;;;;;;8.23;7.43;;;19.40;95.10;;;;;;5090321;28;20046;-46
2021/07/28 02:39:50;;;;;;;12.75;7.22;;;19.40;95.30;;;;;;5087240;28;20507;-49
2021/07/28 02:42:16;;;;;;;9.25;7.32;;;19.50;95.20;;;;;;5090189;28;20036;-47
2021/07/28 02:44:42;;;;;;;8.88;6.88;;;19.60;94.70;;;;;;5086250;28;20142;-53
2021/07/28 02:47:09;;;;;;;12.65;8.02;;;19.50;95.00;;;;;;5092370;28;20028;-49
2021/07/28 02:49:34;;;;;;;10.88;8.25;;;19.30;95.30;;;;;;5091926;28;20047;-47
2021/07/28 02:52:00;;;;;;;8.00;7.20;;;19.10;95.40;;;;;;5091508;28;20056;-48
2021/07/28 02:54:25;;;;;;;10.60;8.07;;;19.10;95.70;;;;;;5091551;28;20032;-47
2021/07/28 02:56:51;;;;;;;12.38;8.27;;;19.10;95.60;;;;;;5091569;28;20035;-47
2021/07/28 02:59:17;;;;;;;12.35;8.13;;;19.20;95.50;;;;;;5091701;28;20024;-47
2021/07/28 03:01:42;;;;;;;11.35;8.10;;;19.20;95.50;;;;;;5094590;28;20031;-50
2021/07/28 03:04:08;;;;;;;10.75;8.60;;;19.30;95.30;;;;;;5095455;28;20503;-53
2021/07/28 03:06:34;;;;;;;10.45;8.27;;;19.30;95.20;;;;;;5095354;28;20071;-52
2021/07/28 03:08:59;;;;;;;10.90;8.57;;;19.30;95.30;;;;;;5077336;28;20048;-49
2021/07/28 03:11:25;;;;;;;11.05;8.73;;;19.30;95.20;;;;;;5096047;28;20039;-50
2021/07/28 03:13:50;;;;;;;12.30;8.05;;;19.20;95.50;;;;;;5095542;28;20034;-52
2021/07/28 03:16:16;;;;;;;11.27;7.88;;;19.30;95.40;;;;;;5095313;28;20403;-52
2021/07/28 03:18:42;;;;;;;10.57;7.80;;;19.30;95.40;;;;;;5093280;28;20073;-51
2021/07/28 03:21:08;;;;;;;11.40;8.80;;;19.30;95.30;;;;;;5090679;28;20036;-51
2021/07/28 03:23:33;;;;;;;10.70;8.10;;;19.30;95.20;;;;;;5095728;28;20035;-46
2021/07/28 03:25:59;;;;;;;9.15;8.02;;;19.30;95.30;;;;;;5081689;28;20564;-48
2021/07/28 03:28:25;;;;;;;10.38;8.90;;;19.30;95.20;;;;;;5094711;28;20058;-52
2021/07/28 03:30:51;;;;;;;10.32;7.45;;;19.30;95.30;;;;;;5095836;28;20056;-50
2021/07/28 03:33:17;;;;;;;10.30;9.20;;;19.20;95.40;;;;;;5095306;28;20039;-50
2021/07/28 03:35:43;;;;;;;12.50;8.80;;;19.20;95.40;;;;;;5095377;28;20032;-51
2021/07/28 03:38:10;;;;;;;10.45;8.40;;;19.10;95.90;;;;;;5095876;28;20047;-53
2021/07/28 03:40:35;;;;;;;9.40;8.30;;;19.00;95.90;;;;;;5090973;28;20058;-48
2021/07/28 03:43:01;;;;;;;11.02;8.82;;;19.10;96.10;;;;;;5084751;28;20492;-51
2021/07/28 03:45:26;;;;;;;10.90;9.02;;;19.10;95.80;;;;;;5094612;28;20028;-48
2021/07/28 03:47:52;;;;;;;10.88;8.55;;;19.10;96.00;;;;;;5076926;28;20044;-47
2021/07/28 03:50:18;;;;;;;10.85;8.60;;;19.10;96.10;;;;;;5109279;28;20036;-49
2021/07/28 03:52:43;;;;;;;10.05;8.30;;;19.10;96.00;;;;;;5094974;28;20031;-51
2021/07/28 03:55:10;;;;;;;10.70;8.68;;;19.20;96.00;;;;;;5094892;28;20044;-47
2021/07/28 03:57:36;;;;;;;10.02;8.23;;;19.20;96.00;;;;;;5096011;28;20416;-50
2021/07/28 04:00:03;;;;;;;14.27;11.35;;;19.30;95.90;;;;;;5094673;28;20514;-53
2021/07/28 04:02:28;;;;;;;12.73;10.02;;;19.30;95.70;;;;;;5095461;28;20028;-48
2021/07/28 04:04:54;;;;;;;10.27;9.10;;;19.40;95.70;;;;;;5095632;28;20024;-49
2021/07/28 04:07:20;;;;;;;11.90;9.63;;;19.40;95.70;;;;;;5079927;28;20032;-50
2021/07/28 04:09:45;;;;;;;11.02;8.70;;;19.40;95.60;;;;;;5094704;28;20431;-53
2021/07/28 04:12:11;;;;;;;15.43;9.27;;;19.30;95.70;;;;;;5094631;28;20055;-48
2021/07/28 04:14:37;;;;;;;11.45;9.35;;;19.30;96.00;;;;;;5109815;28;20040;-46
2021/07/28 04:17:02;;;;;;;11.40;9.63;;;19.30;95.90;;;;;;5094552;28;20035;-51
2021/07/28 04:19:28;;;;;;;12.63;9.30;;;19.30;95.90;;;;;;5087182;28;20029;-49
2021/07/28 04:21:53;;;;;;;9.82;8.63;;;19.40;95.70;;;;;;5077081;28;20069;-47
2021/07/28 04:24:19;;;;;;;12.88;8.57;;;19.30;95.60;;;;;;5095505;28;20039;-46
2021/07/28 04:26:44;;;;;;;12.02;8.90;;;19.30;95.40;;;;;;5094346;28;20036;-50
2021/07/28 04:29:10;;;;;;;14.55;9.07;;;19.10;95.60;;;;;;5095286;28;20107;-49
2021/07/28 04:31:36;;;;;;;12.05;9.57;;;19.10;95.90;;;;;;5095011;28;20391;-47
2021/07/28 04:34:01;;;;;;;11.25;9.20;;;19.10;96.00;;;;;;5094812;28;20166;-51
2021/07/28 04:36:27;;;;;;;10.43;9.18;;;19.10;96.10;;;;;;5093080;28;20031;-54
2021/07/28 04:38:52;;;;;;;12.30;10.30;;;19.00;96.10;;;;;;5081772;28;20036;-54
2021/07/28 04:41:18;;;;;;;11.75;10.25;;;18.70;96.70;;;;;;5093899;28;20031;-47
2021/07/28 04:43:43;;;;;;;15.02;10.98;;;18.50;97.30;;;;;;5082722;28;20107;-53
2021/07/28 04:46:09;;;;;;;12.70;11.07;;;18.50;97.30;;;;;;5093854;28;20550;-52
2021/07/28 04:48:34;;;;;;;13.52;10.07;;;18.40;97.80;;;;;;5090755;28;20025;-48
2021/07/28 04:51:00;;;;;;;16.27;10.45;;;18.50;97.60;;;;;;5065120;28;20058;-46
2021/07/28 04:53:29;;;;;;;10.73;9.63;;;18.60;97.50;;;;;;5075851;28;20070;-47
2021/07/28 04:55:56;;;;;;;15.52;10.00;;;18.70;97.40;;;;;;5093984;28;20585;-51
2021/07/28 04:58:22;;;;;;;13.95;10.18;;;18.90;97.00;;;;;;5094319;28;20043;-49
2021/07/28 05:00:48;;;;;;;13.48;10.02;;;18.80;96.90;;;;;;5108410;28;20497;-53
2021/07/28 05:03:14;;;;;;;12.93;10.13;;;18.90;96.90;;;;;;5094614;28;20062;-46
2021/07/28 05:05:40;;;;;;;14.27;10.68;;;18.90;96.90;;;;;;5093906;28;20036;-49
2021/07/28 05:08:06;;;;;;;13.82;9.65;;;18.80;97.20;;;;;;5093772;28;20024;-47
2021/07/28 05:10:31;;;;;;;14.88;10.90;;;18.90;97.10;;;;;;5094691;28;20028;-50
2021/07/28 05:12:57;;;;;;;12.50;10.50;;;18.90;96.90;;;;;;5093786;28;20024;-50
2021/07/28 05:15:22;;;;;;;15.57;10.02;;;18.90;97.10;;;;;;5074967;28;20036;-47
2021/07/28 05:17:48;;;;;;;11.20;9.90;;;19.00;96.80;;;;;;5093765;28;20040;-47
2021/07/28 05:20:16;;;;;;;11.68;9.60;;;18.90;96.50;;;;;;5086840;28;20035;-47
2021/07/28 05:22:41;;;;;;;10.80;9.70;;;18.90;96.50;;;;;;5094387;28;20103;-54
2021/07/28 05:25:08;;;;;;;10.95;9.15;;;18.90;96.40;;;;;;5093314;28;20586;-47
2021/07/28 05:27:33;;;;;;;12.57;9.43;;;18.90;96.70;;;;;;5092734;28;20446;-48
2021/07/28 05:30:00;;;;;;;15.10;9.35;;;19.00;96.60;;;;;;5092825;28;20039;-48
2021/07/28 05:32:26;;;;;;;13.07;9.57;;;19.10;96.40;;;;;;5093064;28;20028;-51
2021/07/28 05:34:52;;;;;;;11.65;8.85;;;19.20;96.20;;;;;;5092638;28;20036;-48
2021/07/28 05:37:18;;;;;;;12.30;9.55;;;19.30;96.00;;;;;;5092309;28;20103;-47
2021/07/28 05:39:44;;;;;;;13.07;8.65;;;19.30;96.00;;;;;;5080792;28;20032;-50
2021/07/28 05:42:10;;;;;;;10.95;8.98;;;19.30;96.00;;;;;;5090413;28;20508;-48
2021/07/28 05:44:35;;;;;;;13.13;9.50;;;19.30;95.80;;;;;;5085444;28;20024;-49
2021/07/28 05:47:01;;;;;;;11.50;9.00;;;19.30;96.00;;;;;;5092245;28;20033;-47
2021/07/28 05:49:27;;;;;;;14.30;10.43;;;19.30;96.10;;;;;;5092850;28;20483;-52
2021/07/28 05:51:53;;;;;;;10.07;8.98;;;19.40;95.90;;;;;;5092830;28;20020;-46
2021/07/28 05:54:19;;;;;;;12.38;9.52;;;19.60;95.60;;;;;;5092411;28;20035;-53
2021/07/28 05:56:44;;;;;;;13.02;9.55;;;19.80;95.20;;;;;;5091722;28;20028;-51
2021/07/28 05:59:10;;;;;;;13.70;10.85;;;19.80;95.10;;;;;;5043726;28;20029;-49
2021/07/28 06:01:35;;;;;;;10.30;8.75;;;19.90;95.00;;;;;;5092493;28;20061;-47
2021/07/28 06:04:01;;;;;;;16.05;9.32;;;19.80;94.90;;;;;;5092199;28;20157;-47
2021/07/28 06:06:27;;;;;;;12.00;8.98;;;19.80;94.70;;;;;;5092251;28;20032;-52
2021/07/28 06:08:55;;;;;;;11.32;9.68;;;19.70;95.10;;;;;;5092652;28;20036;-52
2021/07/28 06:11:22;;;;;;;11.05;9.25;;;19.80;95.20;;;;;;5093481;28;20089;-53
2021/07/28 06:13:47;;;;;;;12.23;8.68;;;19.80;94.90;;;;;;5103007;28;20027;-47
2021/07/28 06:16:13;;;;;;;11.60;9.68;;;19.80;95.10;;;;;;5094896;28;20119;-47
2021/07/28 06:18:39;;;;;;;13.55;9.43;;;20.00;94.80;;;;;;5090065;28;20040;-50
2021/07/28 06:21:04;;;;;;;12.95;10.05;;;20.00;94.70;;;;;;5087136;28;20062;-48
2021/07/28 06:23:30;;;;;;;10.93;8.93;;;20.20;94.30;;;;;;5092435;28;20040;-48
2021/07/28 06:25:56;;;;;;;11.05;8.70;;;20.10;94.10;;;;;;5091828;28;20040;-47
2021/07/28 06:28:22;;;;;;;9.88;8.48;;;20.00;94.70;;;;;;5091524;28;20441;-54
2021/07/28 06:30:51;;;;;;;10.55;8.35;;;20.10;94.20;;;;;;5074583;28;20024;-55
2021/07/28 06:33:18;;;;;;;10.65;8.20;;;20.10;94.30;;;;;;5092463;28;20028;-49
2021/07/28 06:35:44;;;;;;;12.27;8.43;;;20.10;94.20;;;;;;5107689;28;20048;-50
2021/07/28 06:38:10;;;;;;;11.43;8.45;;;20.20;94.10;;;;;;5092335;28;20036;-51
2021/07/28 06:40:35;;;;;;;9.80;8.07;;;20.10;94.30;;;;;;5092561;28;20042;-53
2021/07/28 06:43:01;;;;;;;11.07;8.38;;;20.20;94.30;;;;;;5090083;28;20036;-49
2021/07/28 06:45:26;;;;;;;10.35;8.23;;;20.30;94.00;;;;;;5091500;28;20047;-48
2021/07/28 06:47:52;;;;;;;10.70;7.65;;;20.30;94.20;;;;;;5077759;28;20088;-51
2021/07/28 06:50:19;;;;;;;9.10;7.95;;;20.60;93.50;;;;;;5091987;28;20107;-55
2021/07/28 06:52:46;;;;;;;11.27;7.88;;;20.70;93.10;;;;;;5091783;28;20028;-53
2021/07/28 06:55:12;;;;;;;9.00;7.20;;;20.60;93.00;;;;;;5081323;28;20118;-57
2021/07/28 06:57:37;;;;;;;9.70;7.57;;;20.70;93.10;;;;;;5088365;28;20052;-52
2021/07/28 07:00:05;;;;;;;11.55;7.25;;;20.60;92.30;;;;;;5091900;28;20110;-51
2021/07/28 07:02:31;;;;;;;8.32;6.45;;;20.50;92.40;;;;;;5091365;28;20028;-48
2021/07/28 07:04:57;;;;;;;7.28;6.15;;;20.40;91.60;;;;;;5091854;28;20055;-53
2021/07/28 07:07:23;;;;;;;8.32;6.50;;;20.20;92.10;;;;;;5057169;28;20098;-52
2021/07/28 07:09:49;;;;;;;10.27;6.32;;;20.40;92.20;;;;;;5091530;28;20483;-48
2021/07/28 07:12:15;;;;;;;7.78;6.45;;;20.30;92.30;;;;;;5091481;28;20040;-50
2021/07/28 07:14:40;;;;;;;6.85;6.07;;;20.40;91.70;;;;;;5091583;28;20020;-51
2021/07/28 07:17:06;;;;;;;9.05;6.63;;;20.40;91.70;;;;;;5106122;28;20055;-46
2021/07/28 07:19:31;;;;;;;8.07;6.63;;;20.40;91.80;;;;;;5088079;28;20099;-46
2021/07/28 07:21:57;;;;;;;8.82;6.45;;;20.50;91.60;;;;;;5092163;28;20494;-49
2021/07/28 07:24:24;;;;;;;9.23;7.03;;;20.60;91.70;;;;;;5092149;28;20492;-51
2021/07/28 07:26:50;;;;;;;7.93;6.50;;;20.70;91.30;;;;;;5107104;28;20032;-52
2021/07/28 07:29:15;;;;;;;7.43;6.25;;;20.70;91.70;;;;;;5104649;28;20024;-45
2021/07/28 07:31:42;;;;;;;7.60;6.28;;;20.80;91.60;;;;;;5109932;28;20029;-49
2021/07/28 07:34:07;;;;;;;7.63;6.85;;;20.90;91.20;;;;;;5101221;28;20487;-50
2021/07/28 07:36:33;;;;;;;7.35;6.30;;;21.20;91.10;;;;;;5072810;28;20063;-50
2021/07/28 07:38:59;;;;;;;8.57;6.70;;;21.10;90.40;;;;;;5100732;28;20032;-52
2021/07/28 07:41:24;;;;;;;10.23;6.57;;;21.00;90.50;;;;;;5108474;28;20035;-45
2021/07/28 07:43:50;;;;;;;8.30;6.70;;;20.90;90.70;;;;;;5103854;28;20031;-50
2021/07/28 07:46:16;;;;;;;7.47;6.40;;;20.90;90.60;;;;;;5109459;28;20672;-50
2021/07/28 07:48:41;;;;;;;8.27;6.55;;;21.20;90.50;;;;;;5096121;28;20058;-51
2021/07/28 07:51:07;;;;;;;7.03;6.32;;;21.20;90.40;;;;;;5109793;28;20024;-49
2021/07/28 07:53:32;;;;;;;9.45;7.15;;;21.40;90.40;;;;;;5115792;28;20032;-51
2021/07/28 07:55:58;;;;;;;9.68;6.30;;;21.40;90.30;;;;;;5115738;28;20483;-46
2021/07/28 07:58:24;;;;;;;12.93;7.05;;;21.40;90.40;;;;;;5115327;28;20542;-51
2021/07/28 08:00:50;;;;;;;9.63;6.38;;;21.70;89.80;;;;;;5109008;28;20094;-49
2021/07/28 08:03:16;;;;;;;7.05;6.35;;;21.50;90.10;;;;;;5096747;28;20106;-50
2021/07/28 08:05:41;;;;;;;7.40;6.63;;;21.50;89.40;;;;;;5114499;28;20517;-48
2021/07/28 08:08:07;;;;;;;8.20;6.40;;;21.50;89.80;;;;;;5099921;28;20036;-52
2021/07/28 08:10:33;;;;;;;6.82;6.15;;;21.70;89.50;;;;;;5088607;28;20056;-48
2021/07/28 08:12:59;;;;;;;7.43;6.25;;;21.60;88.30;;;;;;5094404;28;20024;-51
2021/07/28 08:15:25;;;;;;;7.30;5.78;;;21.50;88.00;;;;;;5094252;28;20058;-52
2021/07/28 08:17:51;;;;;;;9.40;6.38;;;21.50;87.90;;;;;;5094428;28;20036;-51
2021/07/28 08:20:16;;;;;;;7.70;6.50;;;21.60;88.80;;;;;;5087083;28;20097;-53
2021/07/28 08:22:42;;;;;;;7.60;6.10;;;21.70;88.20;;;;;;5085031;28;20025;-52
2021/07/28 08:25:08;;;;;;;9.93;6.47;;;21.60;88.10;;;;;;5094495;28;20032;-56
2021/07/28 08:27:34;;;;;;;10.88;6.70;;;21.50;87.00;;;;;;5094194;28;20376;-53
2021/07/28 08:29:59;;;;;;;7.65;6.32;;;21.60;87.50;;;;;;5094690;28;20035;-49
2021/07/28 08:32:25;;;;;;;9.30;6.38;;;21.70;87.60;;;;;;5094674;28;20028;-48
2021/07/28 08:34:50;;;;;;;8.73;6.72;;;22.00;86.50;;;;;;5094694;28;20040;-51
2021/07/28 08:37:18;;;;;;;9.75;6.28;;;22.10;86.80;;;;;;5075831;28;20024;-51
2021/07/28 08:39:44;;;;;;;6.95;6.22;;;22.30;86.90;;;;;;5088514;28;20081;-48
2021/07/28 08:42:10;;;;;;;8.25;6.80;;;22.30;85.30;;;;;;5091415;28;20032;-47
2021/07/28 08:44:37;;;;;;;6.90;6.20;;;22.20;85.50;;;;;;5086302;28;20036;-48
2021/07/28 08:47:04;;;;;;;7.82;6.07;;;22.20;85.80;;;;;;5075678;28;20032;-49
2021/07/28 08:49:29;;;;;;;7.95;6.95;;;22.20;86.20;;;;;;5083283;28;20438;-51
2021/07/28 08:51:55;;;;;;;7.78;6.63;;;22.20;85.10;;;;;;5090557;28;20032;-50
2021/07/28 08:54:21;;;;;;;8.77;6.40;;;22.40;84.60;;;;;;5093982;28;20122;-52
2021/07/28 08:56:47;;;;;;;8.18;6.88;;;22.50;84.20;;;;;;5093465;28;20077;-53
2021/07/28 08:59:39;;;;;;;9.95;6.60;;;22.60;83.50;;;;;;5093064;28;20024;-52
2021/07/28 09:02:05;;;;;;;9.23;6.70;;;22.40;84.30;;;;;;5105175;28;20051;-55
2021/07/28 09:04:31;;;;;;;9.07;6.78;;;22.50;84.50;;;;;;5113525;28;20028;-48
2021/07/28 09:06:57;;;;;;;9.45;7.10;;;22.50;83.20;;;;;;5113001;28;20031;-49
2021/07/28 09:09:23;;;;;;;8.52;7.07;;;22.60;84.20;;;;;;5112188;28;20024;-51
2021/07/28 09:11:57;;;;;;;9.02;7.10;;;22.60;84.00;;;;;;5093373;28;20088;-56
2021/07/28 09:14:26;;;;;;;;;;;22.60;83.70;;;;;;5058081;28;20161;-58
2021/07/28 09:16:52;;;;;;;9.57;7.63;;;22.50;82.60;;;;;;5079041;28;19912;-59
2021/07/28 09:19:46;;;;;;;10.48;6.65;;;22.30;83.50;;;;;;5111913;28;20098;-58
2021/07/28 09:22:12;;;;;;;8.57;6.23;;;22.30;84.60;;;;;;5105142;28;20040;-55
2021/07/28 09:24:39;;;;;;;10.25;6.32;;;22.40;84.60;;;;;;5112188;28;20555;-56
2021/07/28 09:27:05;;;;;;;8.10;7.00;;;22.60;83.10;;;;;;5111886;28;20047;-57
2021/07/28 09:29:32;;;;;;;8.00;6.47;;;22.70;82.90;;;;;;5093627;28;20518;-58
2021/07/28 09:32:07;;;;;;;7.93;6.43;;;22.70;83.30;;;;;;5110491;28;20031;-54
2021/07/28 09:34:32;;;;;;;8.88;6.63;;;22.80;84.00;;;;;;5107267;28;20043;-53
2021/07/28 09:37:03;;;;;;;10.07;6.75;;;22.80;84.00;;;;;;5110324;28;20208;-56
2021/07/28 09:39:32;;;;;;;9.23;6.72;;;22.70;83.80;;;;;;5109265;28;20111;-57
2021/07/28 09:42:12;;;;;;;8.85;6.30;;;22.80;82.10;;;;;;5110234;28;20038;-57
2021/07/28 09:44:40;;;;;;;9.73;7.10;;;22.70;82.40;;;;;;5105142;28;20020;-57
2021/07/28 09:47:25;;;;;;;11.40;6.30;;;22.90;82.60;;;;;;5092332;28;20492;-56
2021/07/28 09:49:57;;;;;;;9.35;6.75;;;22.80;83.00;;;;;;5108552;28;20055;-54
2021/07/28 09:52:27;;;;;;;7.88;5.88;;;22.90;82.70;;;;;;5111237;28;20367;-52
2021/07/28 09:54:55;;;;;;;7.90;6.25;;;22.80;82.50;;;;;;5111709;28;20024;-57
2021/07/28 09:57:23;;;;;;;9.70;6.80;;;22.90;82.20;;;;;;5113425;27;20031;-55
2021/07/28 09:59:52;;;;;;;11.05;6.45;;;22.90;81.20;;;;;;5106017;28;20041;-55
2021/07/28 10:02:20;;;;;;;7.82;6.28;;;22.70;81.60;;;;;;5084373;28;20181;-55
2021/07/28 10:04:49;;;;;;;9.05;6.43;;;22.60;83.10;;;;;;5104354;28;20039;-54
2021/07/28 10:07:19;;;;;;;8.15;5.63;;;22.80;82.00;;;;;;5111785;28;20034;-55
2021/07/28 10:10:01;;;;;;;10.65;6.50;;;22.80;82.50;;;;;;5111152;28;20039;-56
2021/07/28 10:12:28;;;;;;;10.25;6.80;;;22.90;81.80;;;;;;5086503;28;20055;-59
2021/07/28 10:14:55;;;;;;;9.10;6.60;;;23.00;81.70;;;;;;5110614;28;20043;-58
2021/07/28 10:17:21;;;;;;;7.35;6.65;;;23.10;82.00;;;;;;5111686;28;20081;-56
2021/07/28 10:19:50;;;;;;;7.45;6.65;;;23.00;80.70;;;;;;5083136;28;20028;-53
2021/07/28 10:22:17;;;;;;;9.32;6.85;;;23.00;81.60;;;;;;5092133;28;20031;-56
2021/07/28 10:24:48;;;;;;;8.35;6.50;;;23.10;81.20;;;;;;5095083;28;20036;-57
2021/07/28 10:27:15;;;;;;;9.40;6.70;;;23.00;81.00;;;;;;5094721;28;20093;-57
2021/07/28 10:29:42;;;;;;;6.95;6.07;;;23.00;81.30;;;;;;5092482;28;20487;-57
2021/07/28 10:32:26;;;;;;;7.28;6.10;;;23.10;81.70;;;;;;5082506;28;20047;-58
2021/07/28 10:34:52;;;;;;;10.57;5.80;;;23.30;78.30;;;;;;5082944;28;20395;-56
2021/07/28 10:37:28;;;;;;;7.20;5.38;;;23.10;77.40;;;;;;5091482;28;20026;-57
2021/07/28 10:39:53;;;;;;;9.63;6.18;;;23.00;77.60;;;;;;5084241;28;20024;-55
2021/07/28 10:42:31;;;;;;;6.55;5.90;;;23.00;77.60;;;;;;5088666;28;20085;-58
2021/07/28 10:45:06;;;;;;;6.80;5.40;;;22.80;77.50;;;;;;5078482;28;20028;-58
2021/07/28 10:47:33;;;;;;;12.38;6.18;;;22.60;77.90;;;;;;5091830;28;20475;-56
2021/07/28 10:49:59;;;;;;;7.75;6.20;;;22.70;78.50;;;;;;5091872;28;20039;-57
2021/07/28 10:52:39;;;;;;;6.85;5.68;;;22.80;78.60;;;;;;5092052;28;20036;-57
2021/07/28 10:55:05;;;;;;;8.85;5.70;;;22.80;78.70;;;;;;5092469;28;20479;-56
2021/07/28 10:57:33;;;;;;;7.57;6.43;;;23.00;78.40;;;;;;5091769;28;20032;-57
2021/07/28 11:00:03;;;;;;;8.07;5.78;;;23.10;79.00;;;;;;5090126;28;20055;-55
2021/07/28 11:02:51;;;;;;;7.45;6.13;;;23.10;78.20;;;;;;5079423;28;20051;-54
2021/07/28 11:05:30;;;;;;;7.55;6.55;;;23.00;78.50;;;;;;5091191;28;20430;-52
2021/07/28 11:08:01;;;;;;;11.27;6.68;;;23.00;78.40;;;;;;5080895;28;20392;-51
2021/07/28 11:10:47;;;;;;;7.05;5.75;;;23.00;79.00;;;;;;5073635;28;20396;-53
2021/07/28 11:13:23;;;;;;;5.50;5.00;;;23.00;77.80;;;;;;5076838;28;20407;-51
2021/07/28 11:16:05;;;;;;;6.68;5.95;;;23.10;77.80;;;;;;5091649;28;20036;-49
2021/07/28 11:18:36;;;;;;;6.65;5.93;;;23.20;76.50;;;;;;5078045;28;20560;-51
2021/07/28 11:21:06;;;;;;;6.20;5.60;;;23.10;75.60;;;;;;5073375;28;20071;-50
2021/07/28 11:23:32;;;;;;;5.88;5.28;;;22.90;76.10;;;;;;5095687;28;20028;-52
2021/07/28 11:25:59;;;;;;;6.80;5.35;;;22.80;76.50;;;;;;5095978;28;20043;-50
2021/07/28 11:28:26;;;;;;;6.53;5.72;;;22.80;77.10;;;;;;5094742;28;20043;-50
2021/07/28 11:30:58;;;;;;;7.50;5.65;;;22.90;78.50;;;;;;5095559;28;20028;-52
2021/07/28 11:33:24;;;;;;;10.48;5.47;;;23.00;77.60;;;;;;5093221;28;20040;-48
2021/07/28 11:35:52;;;;;;;6.43;5.82;;;22.90;77.90;;;;;;5094901;28;20095;-47
2021/07/28 11:38:20;;;;;;;7.32;5.75;;;22.90;77.20;;;;;;5096110;28;20051;-48
2021/07/28 11:40:46;;;;;;;7.60;5.85;;;22.90;77.70;;;;;;5092934;28;20115;-48
2021/07/28 11:43:28;;;;;;;6.43;5.82;;;22.80;77.90;;;;;;5086880;28;20446;-46
2021/07/28 11:45:56;;;;;;;6.47;5.88;;;22.80;79.70;;;;;;5089404;28;20422;-49
2021/07/28 11:48:37;;;;;;;6.75;5.50;;;22.90;77.80;;;;;;5093305;28;20502;-48
2021/07/28 11:51:05;;;;;;;7.18;5.57;;;22.90;77.80;;;;;;5094221;28;20040;-48
2021/07/28 11:53:32;;;;;;;7.30;5.97;;;22.70;78.10;;;;;;5095682;28;20028;-47
2021/07/28 11:56:12;;;;;;;6.72;6.03;;;22.60;78.30;;;;;;5094499;28;20399;-47
2021/07/28 11:58:43;;;;;;;8.43;5.95;;;22.50;78.90;;;;;;5094304;28;20028;-48
2021/07/28 12:01:19;;;;;;;7.00;5.82;;;22.70;78.90;;;;;;5094578;28;20093;-47
2021/07/28 12:04:03;;;;;;;7.15;6.45;;;22.80;78.90;;;;;;5092095;28;20032;-48
2021/07/28 12:06:38;;;;;;;8.45;6.60;;;23.00;78.40;;;;;;5093778;28;20487;-48
2021/07/28 12:09:28;;;;;;;9.85;6.63;;;23.10;78.00;;;;;;5100209;28;20024;-50
2021/07/28 12:11:57;;;;;;;9.35;6.43;;;23.10;78.40;;;;;;5112563;28;20032;-51
2021/07/28 12:14:40;;;;;;;7.43;6.70;;;23.20;78.30;;;;;;5093893;28;20154;-53
2021/07/28 12:17:18;;;;;;;7.60;6.20;;;23.10;78.20;;;;;;5093802;28;20032;-54
2021/07/28 12:20:03;;;;;;;7.18;6.07;;;23.50;77.30;;;;;;5086175;28;20030;-57
2021/07/28 12:22:40;;;;;;;7.53;6.40;;;23.50;77.20;;;;;;5108463;28;20032;-54
2021/07/28 12:25:25;;;;;;;7.18;6.22;;;23.50;78.10;;;;;;5091891;28;20032;-54
2021/07/28 12:27:57;;;;;;;7.72;5.90;;;23.60;77.60;;;;;;5084648;28;20044;-58
2021/07/28 12:30:32;;;;;;;7.45;6.53;;;23.50;77.70;;;;;;5086565;28;20107;-51
2021/07/28 12:33:05;;;;;;;7.43;6.18;;;23.60;77.60;;;;;;5093207;28;20027;-52
2021/07/28 12:35:41;;;;;;;7.05;6.35;;;23.70;76.00;;;;;;5093350;28;20032;-55
2021/07/28 12:38:26;;;;;;;7.35;5.97;;;23.80;76.20;;;;;;5093489;28;20020;-55
2021/07/28 12:41:02;;;;;;;7.18;5.95;;;24.00;75.30;;;;;;5101702;28;20107;-58
2021/07/28 12:43:37;;;;;;;8.15;6.38;;;23.90;76.60;;;;;;5085389;28;20031;-57
2021/07/28 12:46:05;;;;;;;8.45;6.53;;;24.00;76.90;;;;;;5093036;28;20391;-51
2021/07/28 12:48:33;;;;;;;7.03;6.32;;;24.10;76.00;;;;;;5075468;28;20036;-52